sensor_id;sensor_type;location;lat;lon;timestamp;P1;durP1;ratioP1;P2;durP2;ratioP2
82032;SDS011;71595;52.180;4.512;2023-10-13T00:01:42;5.80;;;2.30;;
82032;SDS011;71595;52.180;4.512;2023-10-13T00:04:08;9.98;;;2.58;;
82032;SDS011;71595;52.180;4.512;2023-10-13T00:06:33;8.00;;;2.53;;
82032;SDS011;71595;52.180;4.512;2023-10-13T00:08:58;12.90;;;2.97;;
82032;SDS011;71595;52.180;4.512;2023-10-13T00:11:24;9.43;;;2.53;;
82032;SDS011;71595;52.180;4.512;2023-10-13T00:13:51;9.38;;;2.65;;
82032;SDS011;71595;52.180;4.512;2023-10-13T00:16:18;9.25;;;2.53;;
82032;SDS011;71595;52.180;4.512;2023-10-13T00:18:49;8.38;;;2.95;;
82032;SDS011;71595;52.180;4.512;2023-10-13T00:21:19;6.85;;;2.40;;
82032;SDS011;71595;52.180;4.512;2023-10-13T00:23:56;6.10;;;1.70;;
82032;SDS011;71595;52.180;4.512;2023-10-13T00:26:22;8.43;;;1.83;;
82032;SDS011;71595;52.180;4.512;2023-10-13T00:28:53;8.93;;;2.00;;
82032;SDS011;71595;52.180;4.512;2023-10-13T00:31:41;8.30;;;2.95;;
82032;SDS011;71595;52.180;4.512;2023-10-13T00:34:13;6.88;;;2.25;;
82032;SDS011;71595;52.180;4.512;2023-10-13T00:36:41;7.95;;;2.00;;
82032;SDS011;71595;52.180;4.512;2023-10-13T00:39:14;5.80;;;2.67;;
82032;SDS011;71595;52.180;4.512;2023-10-13T00:41:41;8.18;;;2.67;;
82032;SDS011;71595;52.180;4.512;2023-10-13T00:44:18;11.85;;;3.10;;
82032;SDS011;71595;52.180;4.512;2023-10-13T00:46:51;8.90;;;2.90;;
82032;SDS011;71595;52.180;4.512;2023-10-13T00:49:22;8.23;;;2.58;;
82032;SDS011;71595;52.180;4.512;2023-10-13T00:51:49;6.32;;;2.72;;
82032;SDS011;71595;52.180;4.512;2023-10-13T00:54:15;7.07;;;2.97;;
82032;SDS011;71595;52.180;4.512;2023-10-13T00:56:43;6.65;;;2.47;;
82032;SDS011;71595;52.180;4.512;2023-10-13T00:59:18;5.63;;;1.98;;
82032;SDS011;71595;52.180;4.512;2023-10-13T01:01:48;5.22;;;2.53;;
82032;SDS011;71595;52.180;4.512;2023-10-13T01:04:19;6.75;;;2.20;;
82032;SDS011;71595;52.180;4.512;2023-10-13T01:06:44;7.63;;;2.22;;
82032;SDS011;71595;52.180;4.512;2023-10-13T01:09:11;8.18;;;2.75;;
82032;SDS011;71595;52.180;4.512;2023-10-13T01:11:42;8.23;;;2.35;;
82032;SDS011;71595;52.180;4.512;2023-10-13T01:14:13;6.03;;;2.63;;
82032;SDS011;71595;52.180;4.512;2023-10-13T01:16:42;5.18;;;3.42;;
82032;SDS011;71595;52.180;4.512;2023-10-13T01:19:12;7.80;;;4.28;;
82032;SDS011;71595;52.180;4.512;2023-10-13T01:21:39;9.35;;;4.45;;
82032;SDS011;71595;52.180;4.512;2023-10-13T01:24:06;9.07;;;4.40;;
82032;SDS011;71595;52.180;4.512;2023-10-13T01:26:33;11.80;;;5.20;;
82032;SDS011;71595;52.180;4.512;2023-10-13T01:29:03;10.43;;;5.47;;
82032;SDS011;71595;52.180;4.512;2023-10-13T01:31:40;8.43;;;4.82;;
82032;SDS011;71595;52.180;4.512;2023-10-13T01:34:13;11.63;;;6.00;;
82032;SDS011;71595;52.180;4.512;2023-10-13T01:36:53;13.07;;;6.30;;
82032;SDS011;71595;52.180;4.512;2023-10-13T01:39:24;11.45;;;6.88;;
82032;SDS011;71595;52.180;4.512;2023-10-13T01:41:54;11.75;;;7.18;;
82032;SDS011;71595;52.180;4.512;2023-10-13T01:44:25;13.23;;;7.95;;
82032;SDS011;71595;52.180;4.512;2023-10-13T01:46:55;16.35;;;7.82;;
82032;SDS011;71595;52.180;4.512;2023-10-13T01:49:25;14.85;;;8.45;;
82032;SDS011;71595;52.180;4.512;2023-10-13T01:51:50;16.20;;;8.63;;
82032;SDS011;71595;52.180;4.512;2023-10-13T01:54:16;16.42;;;8.85;;
82032;SDS011;71595;52.180;4.512;2023-10-13T01:56:42;13.70;;;8.07;;
82032;SDS011;71595;52.180;4.512;2023-10-13T01:59:10;13.77;;;8.02;;
82032;SDS011;71595;52.180;4.512;2023-10-13T02:01:36;13.82;;;7.65;;
82032;SDS011;71595;52.180;4.512;2023-10-13T02:04:02;16.02;;;7.97;;
82032;SDS011;71595;52.180;4.512;2023-10-13T02:06:31;11.10;;;7.03;;
82032;SDS011;71595;52.180;4.512;2023-10-13T02:09:05;14.27;;;7.68;;
82032;SDS011;71595;52.180;4.512;2023-10-13T02:11:54;15.38;;;7.78;;
82032;SDS011;71595;52.180;4.512;2023-10-13T02:14:20;13.60;;;7.07;;
82032;SDS011;71595;52.180;4.512;2023-10-13T02:16:48;13.60;;;7.43;;
82032;SDS011;71595;52.180;4.512;2023-10-13T02:19:16;14.02;;;7.28;;
82032;SDS011;71595;52.180;4.512;2023-10-13T02:21:44;17.92;;;7.85;;
82032;SDS011;71595;52.180;4.512;2023-10-13T02:24:10;12.05;;;6.90;;
82032;SDS011;71595;52.180;4.512;2023-10-13T02:26:43;10.90;;;6.53;;
82032;SDS011;71595;52.180;4.512;2023-10-13T02:29:09;16.75;;;7.13;;
82032;SDS011;71595;52.180;4.512;2023-10-13T02:31:43;14.45;;;7.35;;
82032;SDS011;71595;52.180;4.512;2023-10-13T02:34:19;13.02;;;6.93;;
82032;SDS011;71595;52.180;4.512;2023-10-13T02:36:44;12.52;;;6.80;;
82032;SDS011;71595;52.180;4.512;2023-10-13T02:39:14;13.07;;;7.30;;
82032;SDS011;71595;52.180;4.512;2023-10-13T02:41:41;11.55;;;7.13;;
82032;SDS011;71595;52.180;4.512;2023-10-13T02:44:12;12.02;;;7.82;;
82032;SDS011;71595;52.180;4.512;2023-10-13T02:46:45;12.23;;;7.00;;
82032;SDS011;71595;52.180;4.512;2023-10-13T02:49:15;16.00;;;7.35;;
82032;SDS011;71595;52.180;4.512;2023-10-13T02:51:44;12.90;;;7.68;;
82032;SDS011;71595;52.180;4.512;2023-10-13T02:54:09;10.88;;;7.05;;
82032;SDS011;71595;52.180;4.512;2023-10-13T02:56:36;14.35;;;7.53;;
82032;SDS011;71595;52.180;4.512;2023-10-13T02:59:02;12.68;;;7.07;;
82032;SDS011;71595;52.180;4.512;2023-10-13T03:01:30;14.43;;;7.25;;
82032;SDS011;71595;52.180;4.512;2023-10-13T03:03:59;14.50;;;7.70;;
82032;SDS011;71595;52.180;4.512;2023-10-13T03:06:25;10.95;;;6.88;;
82032;SDS011;71595;52.180;4.512;2023-10-13T03:11:40;13.63;;;7.70;;
82032;SDS011;71595;52.180;4.512;2023-10-13T03:14:15;12.77;;;7.45;;
82032;SDS011;71595;52.180;4.512;2023-10-13T03:16:59;15.48;;;8.43;;
82032;SDS011;71595;52.180;4.512;2023-10-13T03:19:28;13.98;;;8.18;;
82032;SDS011;71595;52.180;4.512;2023-10-13T03:22:01;14.90;;;8.02;;
82032;SDS011;71595;52.180;4.512;2023-10-13T03:24:35;15.00;;;7.80;;
82032;SDS011;71595;52.180;4.512;2023-10-13T03:27:01;18.55;;;7.70;;
82032;SDS011;71595;52.180;4.512;2023-10-13T03:29:40;11.85;;;7.00;;
82032;SDS011;71595;52.180;4.512;2023-10-13T03:32:09;11.35;;;6.50;;
82032;SDS011;71595;52.180;4.512;2023-10-13T03:34:44;11.85;;;7.53;;
82032;SDS011;71595;52.180;4.512;2023-10-13T03:37:25;12.02;;;6.38;;
82032;SDS011;71595;52.180;4.512;2023-10-13T03:40:06;10.70;;;6.30;;
82032;SDS011;71595;52.180;4.512;2023-10-13T03:42:54;11.30;;;7.03;;
82032;SDS011;71595;52.180;4.512;2023-10-13T03:45:24;12.13;;;6.57;;
82032;SDS011;71595;52.180;4.512;2023-10-13T03:47:52;13.38;;;7.32;;
82032;SDS011;71595;52.180;4.512;2023-10-13T03:50:18;13.15;;;7.03;;
82032;SDS011;71595;52.180;4.512;2023-10-13T03:52:58;12.82;;;7.85;;
82032;SDS011;71595;52.180;4.512;2023-10-13T03:55:26;12.90;;;6.93;;
82032;SDS011;71595;52.180;4.512;2023-10-13T03:57:53;11.05;;;7.03;;
82032;SDS011;71595;52.180;4.512;2023-10-13T04:00:20;10.70;;;6.68;;
82032;SDS011;71595;52.180;4.512;2023-10-13T04:05:34;7.50;;;4.40;;
82032;SDS011;71595;52.180;4.512;2023-10-13T04:08:09;7.97;;;4.72;;
82032;SDS011;71595;52.180;4.512;2023-10-13T04:10:53;6.53;;;3.83;;
82032;SDS011;71595;52.180;4.512;2023-10-13T04:13:20;7.63;;;4.22;;
82032;SDS011;71595;52.180;4.512;2023-10-13T04:16:06;6.72;;;4.32;;
82032;SDS011;71595;52.180;4.512;2023-10-13T04:18:48;7.07;;;4.07;;
82032;SDS011;71595;52.180;4.512;2023-10-13T04:21:34;6.88;;;4.10;;
82032;SDS011;71595;52.180;4.512;2023-10-13T04:24:21;7.90;;;4.28;;
82032;SDS011;71595;52.180;4.512;2023-10-13T04:26:52;6.07;;;4.20;;
82032;SDS011;71595;52.180;4.512;2023-10-13T04:29:36;7.40;;;4.65;;
82032;SDS011;71595;52.180;4.512;2023-10-13T04:32:17;8.85;;;4.65;;
82032;SDS011;71595;52.180;4.512;2023-10-13T04:34:57;10.13;;;4.82;;
82032;SDS011;71595;52.180;4.512;2023-10-13T04:37:35;8.75;;;4.68;;
82032;SDS011;71595;52.180;4.512;2023-10-13T04:40:25;8.73;;;4.50;;
82032;SDS011;71595;52.180;4.512;2023-10-13T04:42:51;7.38;;;4.68;;
82032;SDS011;71595;52.180;4.512;2023-10-13T04:45:29;7.10;;;4.20;;
82032;SDS011;71595;52.180;4.512;2023-10-13T04:47:58;7.55;;;4.15;;
82032;SDS011;71595;52.180;4.512;2023-10-13T04:50:53;6.22;;;4.05;;
82032;SDS011;71595;52.180;4.512;2023-10-13T04:53:44;10.43;;;4.22;;
82032;SDS011;71595;52.180;4.512;2023-10-13T04:56:28;6.22;;;3.53;;
82032;SDS011;71595;52.180;4.512;2023-10-13T04:59:12;10.77;;;3.92;;
82032;SDS011;71595;52.180;4.512;2023-10-13T05:01:42;7.13;;;3.58;;
82032;SDS011;71595;52.180;4.512;2023-10-13T05:04:26;7.20;;;3.92;;
82032;SDS011;71595;52.180;4.512;2023-10-13T05:07:24;6.10;;;3.60;;
82032;SDS011;71595;52.180;4.512;2023-10-13T05:10:08;11.15;;;3.63;;
82032;SDS011;71595;52.180;4.512;2023-10-13T05:12:51;7.80;;;3.15;;
82032;SDS011;71595;52.180;4.512;2023-10-13T05:15:42;8.63;;;4.15;;
82032;SDS011;71595;52.180;4.512;2023-10-13T05:18:33;6.90;;;2.95;;
82032;SDS011;71595;52.180;4.512;2023-10-13T05:21:17;8.18;;;3.40;;
82032;SDS011;71595;52.180;4.512;2023-10-13T05:26:45;9.75;;;3.35;;
82032;SDS011;71595;52.180;4.512;2023-10-13T05:29:29;10.13;;;4.03;;
82032;SDS011;71595;52.180;4.512;2023-10-13T05:32:13;10.75;;;3.60;;
82032;SDS011;71595;52.180;4.512;2023-10-13T05:34:57;6.15;;;3.40;;
82032;SDS011;71595;52.180;4.512;2023-10-13T05:37:41;9.27;;;3.60;;
82032;SDS011;71595;52.180;4.512;2023-10-13T05:40:25;11.93;;;3.10;;
82032;SDS011;71595;52.180;4.512;2023-10-13T05:43:09;9.85;;;3.33;;
82032;SDS011;71595;52.180;4.512;2023-10-13T05:46:01;12.05;;;3.58;;
82032;SDS011;71595;52.180;4.512;2023-10-13T05:48:47;13.90;;;4.72;;
82032;SDS011;71595;52.180;4.512;2023-10-13T05:54:09;13.70;;;3.95;;
82032;SDS011;71595;52.180;4.512;2023-10-13T05:56:41;10.00;;;3.75;;
82032;SDS011;71595;52.180;4.512;2023-10-13T05:59:26;8.18;;;3.35;;
82032;SDS011;71595;52.180;4.512;2023-10-13T06:02:11;13.65;;;3.97;;
82032;SDS011;71595;52.180;4.512;2023-10-13T06:04:55;9.52;;;3.40;;
82032;SDS011;71595;52.180;4.512;2023-10-13T06:07:39;8.27;;;3.22;;
82032;SDS011;71595;52.180;4.512;2023-10-13T06:10:23;13.18;;;3.92;;
82032;SDS011;71595;52.180;4.512;2023-10-13T06:13:07;8.02;;;3.47;;
82032;SDS011;71595;52.180;4.512;2023-10-13T06:15:51;5.20;;;2.85;;
82032;SDS011;71595;52.180;4.512;2023-10-13T06:18:35;10.40;;;3.63;;
82032;SDS011;71595;52.180;4.512;2023-10-13T06:21:19;8.27;;;3.05;;
82032;SDS011;71595;52.180;4.512;2023-10-13T06:24:04;9.52;;;3.38;;
82032;SDS011;71595;52.180;4.512;2023-10-13T06:26:49;8.05;;;3.35;;
82032;SDS011;71595;52.180;4.512;2023-10-13T06:29:32;7.55;;;3.70;;
82032;SDS011;71595;52.180;4.512;2023-10-13T06:31:58;7.78;;;2.85;;
82032;SDS011;71595;52.180;4.512;2023-10-13T06:34:26;9.70;;;3.63;;
82032;SDS011;71595;52.180;4.512;2023-10-13T06:37:09;7.57;;;3.47;;
82032;SDS011;71595;52.180;4.512;2023-10-13T06:39:59;8.40;;;3.25;;
82032;SDS011;71595;52.180;4.512;2023-10-13T06:42:32;11.38;;;3.50;;
82032;SDS011;71595;52.180;4.512;2023-10-13T06:45:07;6.47;;;4.30;;
82032;SDS011;71595;52.180;4.512;2023-10-13T06:47:34;10.65;;;4.50;;
82032;SDS011;71595;52.180;4.512;2023-10-13T06:50:05;9.15;;;4.47;;
82032;SDS011;71595;52.180;4.512;2023-10-13T06:52:40;9.48;;;4.90;;
82032;SDS011;71595;52.180;4.512;2023-10-13T06:55:07;10.57;;;6.07;;
82032;SDS011;71595;52.180;4.512;2023-10-13T06:57:35;11.95;;;7.70;;
82032;SDS011;71595;52.180;4.512;2023-10-13T07:00:00;12.57;;;6.05;;
82032;SDS011;71595;52.180;4.512;2023-10-13T07:02:32;12.15;;;6.50;;
82032;SDS011;71595;52.180;4.512;2023-10-13T07:04:59;12.68;;;6.97;;
82032;SDS011;71595;52.180;4.512;2023-10-13T07:07:36;11.38;;;6.63;;
82032;SDS011;71595;52.180;4.512;2023-10-13T07:10:07;13.57;;;7.32;;
82032;SDS011;71595;52.180;4.512;2023-10-13T07:12:33;16.58;;;8.30;;
82032;SDS011;71595;52.180;4.512;2023-10-13T07:14:59;15.70;;;8.18;;
82032;SDS011;71595;52.180;4.512;2023-10-13T07:17:36;12.20;;;6.78;;
82032;SDS011;71595;52.180;4.512;2023-10-13T07:20:04;13.80;;;7.00;;
82032;SDS011;71595;52.180;4.512;2023-10-13T07:22:39;11.68;;;6.97;;
82032;SDS011;71595;52.180;4.512;2023-10-13T07:25:05;14.23;;;6.88;;
82032;SDS011;71595;52.180;4.512;2023-10-13T07:27:34;11.20;;;6.20;;
82032;SDS011;71595;52.180;4.512;2023-10-13T07:30:00;11.27;;;5.78;;
82032;SDS011;71595;52.180;4.512;2023-10-13T07:32:42;10.40;;;5.70;;
82032;SDS011;71595;52.180;4.512;2023-10-13T07:35:16;13.98;;;6.15;;
82032;SDS011;71595;52.180;4.512;2023-10-13T07:37:49;14.68;;;5.78;;
82032;SDS011;71595;52.180;4.512;2023-10-13T07:40:17;11.13;;;4.57;;
82032;SDS011;71595;52.180;4.512;2023-10-13T07:42:55;14.73;;;5.22;;
82032;SDS011;71595;52.180;4.512;2023-10-13T07:45:28;9.68;;;5.05;;
82032;SDS011;71595;52.180;4.512;2023-10-13T07:48:07;10.77;;;5.15;;
82032;SDS011;71595;52.180;4.512;2023-10-13T07:50:46;14.32;;;5.18;;
82032;SDS011;71595;52.180;4.512;2023-10-13T07:53:23;14.65;;;5.50;;
82032;SDS011;71595;52.180;4.512;2023-10-13T07:55:48;9.77;;;4.93;;
82032;SDS011;71595;52.180;4.512;2023-10-13T07:58:20;11.25;;;5.22;;
82032;SDS011;71595;52.180;4.512;2023-10-13T08:00:50;11.60;;;4.78;;
82032;SDS011;71595;52.180;4.512;2023-10-13T08:03:31;14.57;;;4.90;;
82032;SDS011;71595;52.180;4.512;2023-10-13T08:06:00;11.80;;;5.00;;
82032;SDS011;71595;52.180;4.512;2023-10-13T08:08:43;12.18;;;4.05;;
82032;SDS011;71595;52.180;4.512;2023-10-13T08:11:16;11.75;;;4.90;;
82032;SDS011;71595;52.180;4.512;2023-10-13T08:13:48;11.68;;;4.00;;
82032;SDS011;71595;52.180;4.512;2023-10-13T08:16:21;13.35;;;4.88;;
82032;SDS011;71595;52.180;4.512;2023-10-13T08:18:51;8.82;;;4.30;;
82032;SDS011;71595;52.180;4.512;2023-10-13T08:21:17;12.77;;;4.70;;
82032;SDS011;71595;52.180;4.512;2023-10-13T08:23:51;11.18;;;4.30;;
82032;SDS011;71595;52.180;4.512;2023-10-13T08:26:20;13.00;;;4.93;;
82032;SDS011;71595;52.180;4.512;2023-10-13T08:29:02;13.38;;;4.72;;
82032;SDS011;71595;52.180;4.512;2023-10-13T08:31:46;10.88;;;5.20;;
82032;SDS011;71595;52.180;4.512;2023-10-13T08:34:37;8.80;;;3.97;;
82032;SDS011;71595;52.180;4.512;2023-10-13T08:37:09;12.13;;;4.88;;
82032;SDS011;71595;52.180;4.512;2023-10-13T08:42:31;12.43;;;4.50;;
82032;SDS011;71595;52.180;4.512;2023-10-13T08:45:04;8.52;;;3.83;;
82032;SDS011;71595;52.180;4.512;2023-10-13T08:47:51;10.07;;;4.10;;
82032;SDS011;71595;52.180;4.512;2023-10-13T08:50:57;12.20;;;4.20;;
82032;SDS011;71595;52.180;4.512;2023-10-13T08:53:28;9.35;;;3.83;;
82032;SDS011;71595;52.180;4.512;2023-10-13T08:58:38;12.50;;;3.90;;
82032;SDS011;71595;52.180;4.512;2023-10-13T09:04:00;12.05;;;3.92;;
82032;SDS011;71595;52.180;4.512;2023-10-13T09:06:52;10.00;;;3.92;;
82032;SDS011;71595;52.180;4.512;2023-10-13T09:09:58;12.20;;;3.58;;
82032;SDS011;71595;52.180;4.512;2023-10-13T09:12:19;8.32;;;4.28;;
82032;SDS011;71595;52.180;4.512;2023-10-13T09:14:58;13.52;;;3.70;;
82032;SDS011;71595;52.180;4.512;2023-10-13T09:17:43;8.55;;;4.15;;
82032;SDS011;71595;52.180;4.512;2023-10-13T09:20:15;9.00;;;3.80;;
82032;SDS011;71595;52.180;4.512;2023-10-13T09:22:47;12.02;;;3.83;;
82032;SDS011;71595;52.180;4.512;2023-10-13T09:25:33;8.65;;;3.63;;
82032;SDS011;71595;52.180;4.512;2023-10-13T09:30:46;11.27;;;3.88;;
82032;SDS011;71595;52.180;4.512;2023-10-13T09:33:12;10.85;;;4.05;;
82032;SDS011;71595;52.180;4.512;2023-10-13T09:35:44;9.10;;;4.30;;
82032;SDS011;71595;52.180;4.512;2023-10-13T09:38:16;9.15;;;4.00;;
82032;SDS011;71595;52.180;4.512;2023-10-13T09:40:43;11.07;;;3.65;;
82032;SDS011;71595;52.180;4.512;2023-10-13T09:43:18;8.90;;;3.85;;
82032;SDS011;71595;52.180;4.512;2023-10-13T09:45:46;9.82;;;3.60;;
82032;SDS011;71595;52.180;4.512;2023-10-13T09:48:31;8.93;;;3.90;;
82032;SDS011;71595;52.180;4.512;2023-10-13T09:51:02;7.85;;;3.45;;
82032;SDS011;71595;52.180;4.512;2023-10-13T09:53:32;13.43;;;4.22;;
82032;SDS011;71595;52.180;4.512;2023-10-13T09:56:03;12.18;;;4.20;;
82032;SDS011;71595;52.180;4.512;2023-10-13T09:58:42;13.65;;;4.30;;
82032;SDS011;71595;52.180;4.512;2023-10-13T10:01:17;12.38;;;4.18;;
82032;SDS011;71595;52.180;4.512;2023-10-13T10:04:05;9.00;;;3.70;;
82032;SDS011;71595;52.180;4.512;2023-10-13T10:06:37;12.70;;;4.22;;
82032;SDS011;71595;52.180;4.512;2023-10-13T10:09:09;15.27;;;3.95;;
82032;SDS011;71595;52.180;4.512;2023-10-13T10:17:10;9.75;;;4.07;;
82032;SDS011;71595;52.180;4.512;2023-10-13T10:19:46;16.60;;;4.60;;
82032;SDS011;71595;52.180;4.512;2023-10-13T10:22:12;11.93;;;4.38;;
82032;SDS011;71595;52.180;4.512;2023-10-13T10:24:55;10.80;;;3.92;;
82032;SDS011;71595;52.180;4.512;2023-10-13T10:27:30;8.40;;;3.83;;
82032;SDS011;71595;52.180;4.512;2023-10-13T10:29:56;12.25;;;4.03;;
82032;SDS011;71595;52.180;4.512;2023-10-13T10:32:35;13.13;;;4.75;;
82032;SDS011;71595;52.180;4.512;2023-10-13T10:35:08;8.18;;;4.13;;
82032;SDS011;71595;52.180;4.512;2023-10-13T10:37:39;13.52;;;4.32;;
82032;SDS011;71595;52.180;4.512;2023-10-13T10:40:12;8.20;;;4.05;;
82032;SDS011;71595;52.180;4.512;2023-10-13T10:43:00;11.43;;;4.07;;
82032;SDS011;71595;52.180;4.512;2023-10-13T10:45:33;15.82;;;5.03;;
82032;SDS011;71595;52.180;4.512;2023-10-13T10:48:00;14.98;;;4.38;;
82032;SDS011;71595;52.180;4.512;2023-10-13T10:50:41;15.35;;;4.40;;
82032;SDS011;71595;52.180;4.512;2023-10-13T10:53:07;7.47;;;3.67;;
82032;SDS011;71595;52.180;4.512;2023-10-13T10:55:34;10.07;;;3.90;;
82032;SDS011;71595;52.180;4.512;2023-10-13T10:58:01;15.50;;;4.55;;
82032;SDS011;71595;52.180;4.512;2023-10-13T11:00:31;9.52;;;4.32;;
82032;SDS011;71595;52.180;4.512;2023-10-13T11:03:11;9.25;;;3.83;;
82032;SDS011;71595;52.180;4.512;2023-10-13T11:05:44;12.05;;;4.57;;
82032;SDS011;71595;52.180;4.512;2023-10-13T11:08:23;8.55;;;3.90;;
82032;SDS011;71595;52.180;4.512;2023-10-13T11:10:56;13.18;;;4.53;;
82032;SDS011;71595;52.180;4.512;2023-10-13T11:13:22;13.43;;;5.20;;
82032;SDS011;71595;52.180;4.512;2023-10-13T11:15:48;11.20;;;4.10;;
82032;SDS011;71595;52.180;4.512;2023-10-13T11:18:14;11.02;;;4.43;;
82032;SDS011;71595;52.180;4.512;2023-10-13T11:20:49;11.88;;;4.72;;
82032;SDS011;71595;52.180;4.512;2023-10-13T11:23:19;13.45;;;4.30;;
82032;SDS011;71595;52.180;4.512;2023-10-13T11:25:56;9.40;;;3.95;;
82032;SDS011;71595;52.180;4.512;2023-10-13T11:28:24;8.07;;;4.38;;
82032;SDS011;71595;52.180;4.512;2023-10-13T11:30:53;11.50;;;4.65;;
82032;SDS011;71595;52.180;4.512;2023-10-13T11:33:25;12.52;;;4.35;;
82032;SDS011;71595;52.180;4.512;2023-10-13T11:35:55;13.23;;;4.55;;
82032;SDS011;71595;52.180;4.512;2023-10-13T11:40:51;9.90;;;4.22;;
82032;SDS011;71595;52.180;4.512;2023-10-13T11:46:09;11.07;;;4.20;;
82032;SDS011;71595;52.180;4.512;2023-10-13T11:48:36;10.70;;;4.20;;
82032;SDS011;71595;52.180;4.512;2023-10-13T11:51:05;10.90;;;4.90;;
82032;SDS011;71595;52.180;4.512;2023-10-13T11:53:51;12.45;;;5.20;;
82032;SDS011;71595;52.180;4.512;2023-10-13T11:56:20;13.75;;;4.70;;
82032;SDS011;71595;52.180;4.512;2023-10-13T11:58:47;12.57;;;4.35;;
82032;SDS011;71595;52.180;4.512;2023-10-13T12:01:13;9.73;;;4.05;;
82032;SDS011;71595;52.180;4.512;2023-10-13T12:03:42;12.90;;;4.30;;
82032;SDS011;71595;52.180;4.512;2023-10-13T12:06:27;14.88;;;5.55;;
82032;SDS011;71595;52.180;4.512;2023-10-13T12:11:57;10.00;;;5.00;;
82032;SDS011;71595;52.180;4.512;2023-10-13T12:14:25;11.43;;;4.13;;
82032;SDS011;71595;52.180;4.512;2023-10-13T12:17:17;13.27;;;4.35;;
82032;SDS011;71595;52.180;4.512;2023-10-13T12:19:51;14.20;;;5.03;;
82032;SDS011;71595;52.180;4.512;2023-10-13T12:22:17;10.65;;;4.30;;
82032;SDS011;71595;52.180;4.512;2023-10-13T12:24:50;12.75;;;5.22;;
82032;SDS011;71595;52.180;4.512;2023-10-13T12:27:18;12.40;;;4.82;;
82032;SDS011;71595;52.180;4.512;2023-10-13T12:29:53;12.13;;;4.53;;
82032;SDS011;71595;52.180;4.512;2023-10-13T12:32:21;13.52;;;5.25;;
82032;SDS011;71595;52.180;4.512;2023-10-13T12:34:56;16.30;;;4.60;;
82032;SDS011;71595;52.180;4.512;2023-10-13T12:37:26;14.35;;;5.13;;
82032;SDS011;71595;52.180;4.512;2023-10-13T12:40:09;14.98;;;5.13;;
82032;SDS011;71595;52.180;4.512;2023-10-13T12:42:56;15.77;;;5.25;;
82032;SDS011;71595;52.180;4.512;2023-10-13T12:45:45;13.20;;;4.88;;
82032;SDS011;71595;52.180;4.512;2023-10-13T12:48:31;12.80;;;4.88;;
82032;SDS011;71595;52.180;4.512;2023-10-13T12:51:16;14.45;;;3.97;;
82032;SDS011;71595;52.180;4.512;2023-10-13T12:54:05;15.38;;;5.28;;
82032;SDS011;71595;52.180;4.512;2023-10-13T12:56:31;12.27;;;4.88;;
82032;SDS011;71595;52.180;4.512;2023-10-13T12:58:57;10.80;;;4.47;;
82032;SDS011;71595;52.180;4.512;2023-10-13T13:01:23;11.88;;;4.78;;
82032;SDS011;71595;52.180;4.512;2023-10-13T13:03:51;12.23;;;4.72;;
82032;SDS011;71595;52.180;4.512;2023-10-13T13:06:25;11.20;;;4.45;;
82032;SDS011;71595;52.180;4.512;2023-10-13T13:08:55;15.00;;;5.45;;
82032;SDS011;71595;52.180;4.512;2023-10-13T13:11:25;8.38;;;4.05;;
82032;SDS011;71595;52.180;4.512;2023-10-13T13:13:53;13.05;;;4.50;;
82032;SDS011;71595;52.180;4.512;2023-10-13T13:16:19;13.25;;;5.20;;
82032;SDS011;71595;52.180;4.512;2023-10-13T13:18:51;16.85;;;5.57;;
82032;SDS011;71595;52.180;4.512;2023-10-13T13:21:19;14.82;;;4.50;;
82032;SDS011;71595;52.180;4.512;2023-10-13T13:23:48;13.30;;;4.60;;
82032;SDS011;71595;52.180;4.512;2023-10-13T13:26:14;13.20;;;4.43;;
82032;SDS011;71595;52.180;4.512;2023-10-13T13:28:43;12.10;;;5.47;;
82032;SDS011;71595;52.180;4.512;2023-10-13T13:31:09;15.45;;;4.57;;
82032;SDS011;71595;52.180;4.512;2023-10-13T13:33:37;17.88;;;5.60;;
82032;SDS011;71595;52.180;4.512;2023-10-13T13:36:08;17.80;;;5.53;;
82032;SDS011;71595;52.180;4.512;2023-10-13T13:38:40;12.15;;;4.55;;
82032;SDS011;71595;52.180;4.512;2023-10-13T13:41:13;16.30;;;4.53;;
82032;SDS011;71595;52.180;4.512;2023-10-13T13:43:48;13.95;;;4.57;;
82032;SDS011;71595;52.180;4.512;2023-10-13T13:46:15;12.00;;;4.50;;
82032;SDS011;71595;52.180;4.512;2023-10-13T13:48:41;10.45;;;4.10;;
82032;SDS011;71595;52.180;4.512;2023-10-13T13:51:07;11.70;;;4.68;;
82032;SDS011;71595;52.180;4.512;2023-10-13T13:53:42;15.90;;;4.47;;
82032;SDS011;71595;52.180;4.512;2023-10-13T13:56:10;11.40;;;4.20;;
82032;SDS011;71595;52.180;4.512;2023-10-13T13:58:47;15.15;;;4.20;;
82032;SDS011;71595;52.180;4.512;2023-10-13T14:01:15;17.52;;;5.43;;
82032;SDS011;71595;52.180;4.512;2023-10-13T14:03:43;17.25;;;4.50;;
82032;SDS011;71595;52.180;4.512;2023-10-13T14:06:12;13.57;;;4.28;;
82032;SDS011;71595;52.180;4.512;2023-10-13T14:08:52;14.40;;;4.30;;
82032;SDS011;71595;52.180;4.512;2023-10-13T14:11:23;16.67;;;4.70;;
82032;SDS011;71595;52.180;4.512;2023-10-13T14:16:37;13.18;;;4.30;;
82032;SDS011;71595;52.180;4.512;2023-10-13T14:19:10;14.43;;;4.57;;
82032;SDS011;71595;52.180;4.512;2023-10-13T14:21:44;18.02;;;4.57;;
82032;SDS011;71595;52.180;4.512;2023-10-13T14:24:09;14.48;;;4.85;;
82032;SDS011;71595;52.180;4.512;2023-10-13T14:26:43;14.35;;;4.68;;
82032;SDS011;71595;52.180;4.512;2023-10-13T14:29:09;11.35;;;3.80;;
82032;SDS011;71595;52.180;4.512;2023-10-13T14:31:39;13.82;;;4.75;;
82032;SDS011;71595;52.180;4.512;2023-10-13T14:34:04;9.25;;;3.92;;
82032;SDS011;71595;52.180;4.512;2023-10-13T14:36:31;13.93;;;4.10;;
82032;SDS011;71595;52.180;4.512;2023-10-13T14:38:59;11.48;;;3.58;;
82032;SDS011;71595;52.180;4.512;2023-10-13T14:41:26;14.35;;;3.63;;
82032;SDS011;71595;52.180;4.512;2023-10-13T14:43:51;13.73;;;3.92;;
82032;SDS011;71595;52.180;4.512;2023-10-13T14:46:17;16.17;;;4.00;;
82032;SDS011;71595;52.180;4.512;2023-10-13T14:48:47;11.45;;;3.53;;
82032;SDS011;71595;52.180;4.512;2023-10-13T14:51:13;15.63;;;4.38;;
82032;SDS011;71595;52.180;4.512;2023-10-13T14:53:40;16.23;;;3.45;;
82032;SDS011;71595;52.180;4.512;2023-10-13T14:56:15;11.80;;;3.33;;
82032;SDS011;71595;52.180;4.512;2023-10-13T14:58:41;10.60;;;3.97;;
82032;SDS011;71595;52.180;4.512;2023-10-13T15:01:17;13.52;;;3.80;;
82032;SDS011;71595;52.180;4.512;2023-10-13T15:03:46;10.60;;;2.83;;
82032;SDS011;71595;52.180;4.512;2023-10-13T15:06:18;10.10;;;2.75;;
82032;SDS011;71595;52.180;4.512;2023-10-13T15:08:54;8.57;;;2.90;;
82032;SDS011;71595;52.180;4.512;2023-10-13T15:11:24;15.20;;;3.10;;
82032;SDS011;71595;52.180;4.512;2023-10-13T15:14:10;12.80;;;3.22;;
82032;SDS011;71595;52.180;4.512;2023-10-13T15:16:38;13.23;;;3.80;;
82032;SDS011;71595;52.180;4.512;2023-10-13T15:19:03;13.60;;;4.43;;
82032;SDS011;71595;52.180;4.512;2023-10-13T15:21:29;17.20;;;5.68;;
82032;SDS011;71595;52.180;4.512;2023-10-13T15:23:59;17.23;;;5.47;;
82032;SDS011;71595;52.180;4.512;2023-10-13T15:26:45;16.50;;;5.72;;
82032;SDS011;71595;52.180;4.512;2023-10-13T15:29:17;15.55;;;5.20;;
82032;SDS011;71595;52.180;4.512;2023-10-13T15:31:46;14.88;;;5.35;;
82032;SDS011;71595;52.180;4.512;2023-10-13T15:34:23;17.95;;;6.68;;
82032;SDS011;71595;52.180;4.512;2023-10-13T15:36:51;18.55;;;6.30;;
82032;SDS011;71595;52.180;4.512;2023-10-13T15:39:17;18.92;;;6.75;;
82032;SDS011;71595;52.180;4.512;2023-10-13T15:41:48;15.32;;;5.68;;
82032;SDS011;71595;52.180;4.512;2023-10-13T15:44:23;16.35;;;6.30;;
82032;SDS011;71595;52.180;4.512;2023-10-13T15:46:55;18.02;;;6.32;;
82032;SDS011;71595;52.180;4.512;2023-10-13T15:49:22;16.95;;;5.95;;
82032;SDS011;71595;52.180;4.512;2023-10-13T15:51:48;21.67;;;6.25;;
82032;SDS011;71595;52.180;4.512;2023-10-13T15:54:14;18.05;;;6.20;;